sensor_id;sensor_type;location;lat;lon;timestamp;P1;durP1;ratioP1;P2;durP2;ratioP2
24273;SDS011;12392;42.678;23.380;2023-06-04T00:00:27;5.30;;;2.22;;
24273;SDS011;12392;42.678;23.380;2023-06-04T00:02:52;3.80;;;2.05;;
24273;SDS011;12392;42.678;23.380;2023-06-04T00:05:18;4.63;;;2.05;;
24273;SDS011;12392;42.678;23.380;2023-06-04T00:07:44;2.33;;;1.98;;
24273;SDS011;12392;42.678;23.380;2023-06-04T00:10:09;3.45;;;2.33;;
24273;SDS011;12392;42.678;23.380;2023-06-04T00:12:35;3.30;;;2.13;;
24273;SDS011;12392;42.678;23.380;2023-06-04T00:15:01;2.28;;;1.95;;
24273;SDS011;12392;42.678;23.380;2023-06-04T00:17:27;5.60;;;1.95;;
24273;SDS011;12392;42.678;23.380;2023-06-04T00:19:53;2.88;;;2.30;;
24273;SDS011;12392;42.678;23.380;2023-06-04T00:22:19;3.05;;;2.40;;
24273;SDS011;12392;42.678;23.380;2023-06-04T00:24:44;5.18;;;2.80;;
24273;SDS011;12392;42.678;23.380;2023-06-04T00:27:10;3.47;;;2.70;;
24273;SDS011;12392;42.678;23.380;2023-06-04T00:29:36;3.03;;;2.50;;
24273;SDS011;12392;42.678;23.380;2023-06-04T00:32:02;3.20;;;2.47;;
24273;SDS011;12392;42.678;23.380;2023-06-04T00:34:28;4.43;;;2.53;;
24273;SDS011;12392;42.678;23.380;2023-06-04T00:36:53;3.05;;;2.22;;
24273;SDS011;12392;42.678;23.380;2023-06-04T00:39:19;2.38;;;1.98;;
24273;SDS011;12392;42.678;23.380;2023-06-04T00:41:45;3.92;;;2.67;;
24273;SDS011;12392;42.678;23.380;2023-06-04T00:44:11;3.20;;;2.20;;
24273;SDS011;12392;42.678;23.380;2023-06-04T00:46:37;4.63;;;2.42;;
24273;SDS011;12392;42.678;23.380;2023-06-04T00:49:04;3.70;;;2.10;;
24273;SDS011;12392;42.678;23.380;2023-06-04T00:51:31;2.63;;;2.40;;
24273;SDS011;12392;42.678;23.380;2023-06-04T00:53:57;4.20;;;2.58;;
24273;SDS011;12392;42.678;23.380;2023-06-04T00:56:24;9.80;;;2.88;;
24273;SDS011;12392;42.678;23.380;2023-06-04T00:58:49;4.15;;;2.15;;
24273;SDS011;12392;42.678;23.380;2023-06-04T01:03:49;4.53;;;2.50;;
24273;SDS011;12392;42.678;23.380;2023-06-04T01:06:59;6.40;;;2.53;;
24273;SDS011;12392;42.678;23.380;2023-06-04T01:09:09;3.20;;;2.33;;
24273;SDS011;12392;42.678;23.380;2023-06-04T01:11:39;2.45;;;2.17;;
24273;SDS011;12392;42.678;23.380;2023-06-04T01:14:06;2.80;;;2.05;;
24273;SDS011;12392;42.678;23.380;2023-06-04T01:25:14;2.30;;;2.10;;
24273;SDS011;12392;42.678;23.380;2023-06-04T01:27:45;2.67;;;2.25;;
24273;SDS011;12392;42.678;23.380;2023-06-04T01:30:16;2.60;;;2.17;;
24273;SDS011;12392;42.678;23.380;2023-06-04T01:32:42;3.83;;;2.28;;
24273;SDS011;12392;42.678;23.380;2023-06-04T01:35:08;2.95;;;2.03;;
24273;SDS011;12392;42.678;23.380;2023-06-04T01:37:35;2.40;;;1.92;;
24273;SDS011;12392;42.678;23.380;2023-06-04T01:40:01;3.33;;;1.90;;
24273;SDS011;12392;42.678;23.380;2023-06-04T01:42:27;3.42;;;1.60;;
24273;SDS011;12392;42.678;23.380;2023-06-04T01:44:53;2.83;;;2.00;;
24273;SDS011;12392;42.678;23.380;2023-06-04T01:47:18;2.63;;;1.83;;
24273;SDS011;12392;42.678;23.380;2023-06-04T01:49:44;2.22;;;1.90;;
24273;SDS011;12392;42.678;23.380;2023-06-04T01:52:10;2.03;;;1.83;;
24273;SDS011;12392;42.678;23.380;2023-06-04T01:54:36;3.50;;;2.15;;
24273;SDS011;12392;42.678;23.380;2023-06-04T01:57:03;2.38;;;1.90;;
24273;SDS011;12392;42.678;23.380;2023-06-04T01:59:30;3.95;;;1.90;;
24273;SDS011;12392;42.678;23.380;2023-06-04T02:01:57;2.25;;;1.73;;
24273;SDS011;12392;42.678;23.380;2023-06-04T02:04:22;2.15;;;1.77;;
24273;SDS011;12392;42.678;23.380;2023-06-04T02:06:49;6.03;;;2.05;;
24273;SDS011;12392;42.678;23.380;2023-06-04T02:09:15;4.78;;;1.98;;
24273;SDS011;12392;42.678;23.380;2023-06-04T02:11:41;3.47;;;2.33;;
24273;SDS011;12392;42.678;23.380;2023-06-04T02:14:06;4.22;;;2.15;;
24273;SDS011;12392;42.678;23.380;2023-06-04T02:16:32;3.13;;;2.10;;
24273;SDS011;12392;42.678;23.380;2023-06-04T02:18:58;2.55;;;2.35;;
24273;SDS011;12392;42.678;23.380;2023-06-04T02:21:24;3.90;;;2.03;;
24273;SDS011;12392;42.678;23.380;2023-06-04T02:23:50;5.65;;;2.50;;
24273;SDS011;12392;42.678;23.380;2023-06-04T02:26:15;4.07;;;2.50;;
24273;SDS011;12392;42.678;23.380;2023-06-04T02:28:41;6.57;;;2.60;;
24273;SDS011;12392;42.678;23.380;2023-06-04T02:31:07;2.97;;;2.25;;
24273;SDS011;12392;42.678;23.380;2023-06-04T02:33:32;5.85;;;2.28;;
24273;SDS011;12392;42.678;23.380;2023-06-04T02:35:58;2.72;;;2.17;;
24273;SDS011;12392;42.678;23.380;2023-06-04T02:38:24;4.28;;;2.40;;
24273;SDS011;12392;42.678;23.380;2023-06-04T02:40:49;1.92;;;1.73;;
24273;SDS011;12392;42.678;23.380;2023-06-04T02:43:15;1.73;;;1.63;;
24273;SDS011;12392;42.678;23.380;2023-06-04T02:45:41;3.88;;;2.28;;
24273;SDS011;12392;42.678;23.380;2023-06-04T02:48:07;2.38;;;2.00;;
24273;SDS011;12392;42.678;23.380;2023-06-04T02:50:32;3.95;;;1.80;;
24273;SDS011;12392;42.678;23.380;2023-06-04T02:52:58;3.00;;;2.33;;
24273;SDS011;12392;42.678;23.380;2023-06-04T02:55:24;4.00;;;1.98;;
24273;SDS011;12392;42.678;23.380;2023-06-04T02:57:50;2.80;;;1.80;;
24273;SDS011;12392;42.678;23.380;2023-06-04T03:00:17;3.10;;;2.03;;
24273;SDS011;12392;42.678;23.380;2023-06-04T03:02:46;3.35;;;2.22;;
24273;SDS011;12392;42.678;23.380;2023-06-04T03:05:13;2.47;;;2.10;;
24273;SDS011;12392;42.678;23.380;2023-06-04T03:07:40;6.18;;;2.40;;
24273;SDS011;12392;42.678;23.380;2023-06-04T03:10:08;3.35;;;2.30;;
24273;SDS011;12392;42.678;23.380;2023-06-04T03:12:35;2.33;;;2.00;;
24273;SDS011;12392;42.678;23.380;2023-06-04T03:15:00;3.17;;;2.25;;
24273;SDS011;12392;42.678;23.380;2023-06-04T03:17:27;4.72;;;2.65;;
24273;SDS011;12392;42.678;23.380;2023-06-04T03:19:52;2.70;;;2.22;;
24273;SDS011;12392;42.678;23.380;2023-06-04T03:22:18;4.05;;;2.40;;
24273;SDS011;12392;42.678;23.380;2023-06-04T03:24:44;2.67;;;2.25;;
24273;SDS011;12392;42.678;23.380;2023-06-04T03:27:10;3.83;;;2.42;;
24273;SDS011;12392;42.678;23.380;2023-06-04T03:29:36;4.00;;;2.10;;
24273;SDS011;12392;42.678;23.380;2023-06-04T03:32:02;3.70;;;2.03;;
24273;SDS011;12392;42.678;23.380;2023-06-04T03:34:28;1.90;;;1.77;;
24273;SDS011;12392;42.678;23.380;2023-06-04T03:36:56;3.50;;;2.17;;
24273;SDS011;12392;42.678;23.380;2023-06-04T03:39:22;3.15;;;2.15;;
24273;SDS011;12392;42.678;23.380;2023-06-04T03:41:48;4.20;;;2.47;;
24273;SDS011;12392;42.678;23.380;2023-06-04T03:44:14;4.07;;;2.38;;
24273;SDS011;12392;42.678;23.380;2023-06-04T03:46:41;7.32;;;2.35;;
24273;SDS011;12392;42.678;23.380;2023-06-04T03:49:07;2.78;;;2.25;;
24273;SDS011;12392;42.678;23.380;2023-06-04T03:51:33;3.03;;;2.17;;
24273;SDS011;12392;42.678;23.380;2023-06-04T03:53:59;3.45;;;2.50;;
24273;SDS011;12392;42.678;23.380;2023-06-04T03:56:25;3.30;;;2.15;;
24273;SDS011;12392;42.678;23.380;2023-06-04T03:58:53;2.67;;;2.15;;
24273;SDS011;12392;42.678;23.380;2023-06-04T04:01:19;4.65;;;1.90;;
24273;SDS011;12392;42.678;23.380;2023-06-04T04:03:45;3.20;;;2.22;;
24273;SDS011;12392;42.678;23.380;2023-06-04T04:06:14;3.70;;;2.22;;
24273;SDS011;12392;42.678;23.380;2023-06-04T04:08:40;3.92;;;2.13;;
24273;SDS011;12392;42.678;23.380;2023-06-04T04:11:10;3.08;;;2.33;;
24273;SDS011;12392;42.678;23.380;2023-06-04T04:13:37;3.88;;;2.53;;
24273;SDS011;12392;42.678;23.380;2023-06-04T04:16:02;2.50;;;2.30;;
24273;SDS011;12392;42.678;23.380;2023-06-04T04:18:31;5.28;;;2.25;;
24273;SDS011;12392;42.678;23.380;2023-06-04T04:21:01;4.03;;;2.45;;
24273;SDS011;12392;42.678;23.380;2023-06-04T04:23:28;4.28;;;2.33;;
24273;SDS011;12392;42.678;23.380;2023-06-04T04:25:54;4.18;;;2.20;;
24273;SDS011;12392;42.678;23.380;2023-06-04T04:28:23;4.22;;;2.35;;
24273;SDS011;12392;42.678;23.380;2023-06-04T04:30:56;6.75;;;2.45;;
24273;SDS011;12392;42.678;23.380;2023-06-04T04:33:22;4.70;;;2.35;;
24273;SDS011;12392;42.678;23.380;2023-06-04T04:35:49;2.90;;;2.60;;
24273;SDS011;12392;42.678;23.380;2023-06-04T04:38:15;3.17;;;2.50;;
24273;SDS011;12392;42.678;23.380;2023-06-04T04:40:42;4.78;;;2.50;;
24273;SDS011;12392;42.678;23.380;2023-06-04T04:43:08;2.97;;;2.20;;
24273;SDS011;12392;42.678;23.380;2023-06-04T04:45:34;3.00;;;2.70;;
24273;SDS011;12392;42.678;23.380;2023-06-04T04:48:00;5.93;;;2.88;;
24273;SDS011;12392;42.678;23.380;2023-06-04T04:50:25;5.78;;;2.90;;
24273;SDS011;12392;42.678;23.380;2023-06-04T04:52:51;4.78;;;3.10;;
24273;SDS011;12392;42.678;23.380;2023-06-04T04:55:17;6.28;;;3.00;;
24273;SDS011;12392;42.678;23.380;2023-06-04T04:57:42;6.45;;;3.25;;
24273;SDS011;12392;42.678;23.380;2023-06-04T05:00:08;5.05;;;2.60;;
24273;SDS011;12392;42.678;23.380;2023-06-04T05:02:35;5.97;;;2.92;;
24273;SDS011;12392;42.678;23.380;2023-06-04T05:05:01;4.80;;;3.40;;
24273;SDS011;12392;42.678;23.380;2023-06-04T05:07:28;4.03;;;3.35;;
24273;SDS011;12392;42.678;23.380;2023-06-04T05:09:53;4.35;;;3.45;;
24273;SDS011;12392;42.678;23.380;2023-06-04T05:12:19;9.00;;;3.88;;
24273;SDS011;12392;42.678;23.380;2023-06-04T05:14:45;4.25;;;3.38;;
24273;SDS011;12392;42.678;23.380;2023-06-04T05:17:11;7.50;;;4.03;;
24273;SDS011;12392;42.678;23.380;2023-06-04T05:19:38;6.18;;;3.63;;
24273;SDS011;12392;42.678;23.380;2023-06-04T05:22:04;12.40;;;3.67;;
24273;SDS011;12392;42.678;23.380;2023-06-04T05:24:30;6.93;;;3.60;;
24273;SDS011;12392;42.678;23.380;2023-06-04T05:26:57;5.03;;;4.10;;
24273;SDS011;12392;42.678;23.380;2023-06-04T05:29:23;7.20;;;3.85;;
24273;SDS011;12392;42.678;23.380;2023-06-04T05:31:49;4.50;;;3.00;;
24273;SDS011;12392;42.678;23.380;2023-06-04T05:34:15;5.20;;;4.05;;
24273;SDS011;12392;42.678;23.380;2023-06-04T05:36:41;6.93;;;2.97;;
24273;SDS011;12392;42.678;23.380;2023-06-04T05:39:08;4.00;;;2.92;;
24273;SDS011;12392;42.678;23.380;2023-06-04T05:41:34;4.22;;;3.00;;
24273;SDS011;12392;42.678;23.380;2023-06-04T05:44:01;3.20;;;2.90;;
24273;SDS011;12392;42.678;23.380;2023-06-04T05:46:27;7.60;;;2.90;;
24273;SDS011;12392;42.678;23.380;2023-06-04T05:48:52;3.53;;;3.22;;
24273;SDS011;12392;42.678;23.380;2023-06-04T05:51:19;3.60;;;2.78;;
24273;SDS011;12392;42.678;23.380;2023-06-04T05:53:45;4.85;;;3.50;;
24273;SDS011;12392;42.678;23.380;2023-06-04T05:56:11;7.63;;;3.30;;
24273;SDS011;12392;42.678;23.380;2023-06-04T05:58:36;4.75;;;3.15;;
24273;SDS011;12392;42.678;23.380;2023-06-04T06:01:02;4.78;;;2.95;;
24273;SDS011;12392;42.678;23.380;2023-06-04T06:03:28;5.05;;;3.15;;
24273;SDS011;12392;42.678;23.380;2023-06-04T06:05:54;3.60;;;2.88;;
24273;SDS011;12392;42.678;23.380;2023-06-04T06:08:20;3.17;;;2.70;;
24273;SDS011;12392;42.678;23.380;2023-06-04T06:10:46;4.75;;;3.35;;
24273;SDS011;12392;42.678;23.380;2023-06-04T06:13:12;7.28;;;3.25;;
24273;SDS011;12392;42.678;23.380;2023-06-04T06:15:38;3.17;;;2.88;;
24273;SDS011;12392;42.678;23.380;2023-06-04T06:18:04;4.70;;;3.25;;
24273;SDS011;12392;42.678;23.380;2023-06-04T06:20:29;4.78;;;3.15;;
24273;SDS011;12392;42.678;23.380;2023-06-04T06:22:55;5.55;;;2.88;;
24273;SDS011;12392;42.678;23.380;2023-06-04T06:25:21;6.53;;;3.40;;
24273;SDS011;12392;42.678;23.380;2023-06-04T06:27:47;5.28;;;3.05;;
24273;SDS011;12392;42.678;23.380;2023-06-04T06:30:13;3.17;;;2.83;;
24273;SDS011;12392;42.678;23.380;2023-06-04T06:32:39;4.45;;;3.08;;
24273;SDS011;12392;42.678;23.380;2023-06-04T06:35:05;3.92;;;2.92;;
24273;SDS011;12392;42.678;23.380;2023-06-04T06:37:32;5.85;;;2.80;;
24273;SDS011;12392;42.678;23.380;2023-06-04T06:39:58;6.68;;;3.17;;
24273;SDS011;12392;42.678;23.380;2023-06-04T06:42:24;4.53;;;3.33;;
24273;SDS011;12392;42.678;23.380;2023-06-04T06:44:50;3.35;;;2.72;;
24273;SDS011;12392;42.678;23.380;2023-06-04T06:47:15;5.53;;;3.22;;
24273;SDS011;12392;42.678;23.380;2023-06-04T06:49:41;4.40;;;3.13;;
24273;SDS011;12392;42.678;23.380;2023-06-04T06:52:07;5.32;;;3.60;;
24273;SDS011;12392;42.678;23.380;2023-06-04T06:54:33;4.70;;;3.20;;
24273;SDS011;12392;42.678;23.380;2023-06-04T06:56:58;4.82;;;3.20;;
24273;SDS011;12392;42.678;23.380;2023-06-04T06:59:24;9.93;;;3.55;;
24273;SDS011;12392;42.678;23.380;2023-06-04T07:01:50;6.70;;;3.00;;
24273;SDS011;12392;42.678;23.380;2023-06-04T07:04:16;4.05;;;3.30;;
24273;SDS011;12392;42.678;23.380;2023-06-04T07:06:42;3.83;;;3.42;;
24273;SDS011;12392;42.678;23.380;2023-06-04T07:09:08;7.55;;;3.40;;
24273;SDS011;12392;42.678;23.380;2023-06-04T07:11:34;4.50;;;2.85;;
24273;SDS011;12392;42.678;23.380;2023-06-04T07:14:00;7.00;;;3.70;;
24273;SDS011;12392;42.678;23.380;2023-06-04T07:16:29;3.90;;;2.92;;
24273;SDS011;12392;42.678;23.380;2023-06-04T07:18:55;9.93;;;3.40;;
24273;SDS011;12392;42.678;23.380;2023-06-04T07:21:20;6.30;;;3.05;;
24273;SDS011;12392;42.678;23.380;2023-06-04T07:23:49;4.82;;;2.72;;
24273;SDS011;12392;42.678;23.380;2023-06-04T07:26:16;6.70;;;3.42;;
24273;SDS011;12392;42.678;23.380;2023-06-04T07:28:42;10.15;;;3.45;;
24273;SDS011;12392;42.678;23.380;2023-06-04T07:31:08;7.10;;;3.10;;
24273;SDS011;12392;42.678;23.380;2023-06-04T07:33:34;5.75;;;3.22;;
24273;SDS011;12392;42.678;23.380;2023-06-04T07:36:08;7.15;;;3.75;;
24273;SDS011;12392;42.678;23.380;2023-06-04T07:38:37;3.47;;;3.13;;
24273;SDS011;12392;42.678;23.380;2023-06-04T07:41:03;7.63;;;3.53;;
24273;SDS011;12392;42.678;23.380;2023-06-04T07:43:29;4.82;;;3.70;;
24273;SDS011;12392;42.678;23.380;2023-06-04T07:45:54;4.03;;;3.13;;
24273;SDS011;12392;42.678;23.380;2023-06-04T07:48:21;6.35;;;3.67;;
24273;SDS011;12392;42.678;23.380;2023-06-04T07:50:55;6.03;;;3.83;;
24273;SDS011;12392;42.678;23.380;2023-06-04T07:53:24;9.85;;;3.83;;
24273;SDS011;12392;42.678;23.380;2023-06-04T07:55:50;6.00;;;3.50;;
24273;SDS011;12392;42.678;23.380;2023-06-04T07:58:16;6.18;;;4.30;;
24273;SDS011;12392;42.678;23.380;2023-06-04T08:00:42;5.32;;;3.95;;
24273;SDS011;12392;42.678;23.380;2023-06-04T08:03:07;5.57;;;3.67;;
24273;SDS011;12392;42.678;23.380;2023-06-04T08:05:34;5.22;;;3.70;;
24273;SDS011;12392;42.678;23.380;2023-06-04T08:07:59;9.73;;;4.05;;
24273;SDS011;12392;42.678;23.380;2023-06-04T08:10:25;5.47;;;3.78;;
24273;SDS011;12392;42.678;23.380;2023-06-04T08:12:51;4.13;;;3.30;;
24273;SDS011;12392;42.678;23.380;2023-06-04T08:15:16;5.68;;;3.95;;
24273;SDS011;12392;42.678;23.380;2023-06-04T08:17:42;6.93;;;3.53;;
24273;SDS011;12392;42.678;23.380;2023-06-04T08:20:08;6.03;;;3.42;;
24273;SDS011;12392;42.678;23.380;2023-06-04T08:22:34;8.63;;;4.10;;
24273;SDS011;12392;42.678;23.380;2023-06-04T08:25:00;5.65;;;3.22;;
24273;SDS011;12392;42.678;23.380;2023-06-04T08:27:25;10.50;;;3.30;;
24273;SDS011;12392;42.678;23.380;2023-06-04T08:29:51;4.75;;;3.53;;
24273;SDS011;12392;42.678;23.380;2023-06-04T08:32:17;8.85;;;3.65;;
24273;SDS011;12392;42.678;23.380;2023-06-04T08:34:43;6.32;;;3.70;;
24273;SDS011;12392;42.678;23.380;2023-06-04T08:37:09;8.40;;;3.85;;
24273;SDS011;12392;42.678;23.380;2023-06-04T08:39:35;6.40;;;4.00;;
24273;SDS011;12392;42.678;23.380;2023-06-04T08:42:01;5.78;;;3.55;;
24273;SDS011;12392;42.678;23.380;2023-06-04T08:44:30;7.72;;;3.90;;
24273;SDS011;12392;42.678;23.380;2023-06-04T08:47:01;7.38;;;4.00;;
24273;SDS011;12392;42.678;23.380;2023-06-04T08:49:28;7.18;;;4.20;;
24273;SDS011;12392;42.678;23.380;2023-06-04T08:52:02;5.72;;;4.20;;
24273;SDS011;12392;42.678;23.380;2023-06-04T08:54:29;7.45;;;4.32;;
24273;SDS011;12392;42.678;23.380;2023-06-04T08:56:56;6.03;;;4.45;;
24273;SDS011;12392;42.678;23.380;2023-06-04T08:59:23;9.57;;;5.03;;
24273;SDS011;12392;42.678;23.380;2023-06-04T09:01:50;8.90;;;4.38;;
24273;SDS011;12392;42.678;23.380;2023-06-04T09:04:18;8.65;;;4.60;;
24273;SDS011;12392;42.678;23.380;2023-06-04T09:06:44;7.25;;;5.05;;
24273;SDS011;12392;42.678;23.380;2023-06-04T09:09:10;6.90;;;4.80;;
24273;SDS011;12392;42.678;23.380;2023-06-04T09:11:41;5.68;;;4.30;;
24273;SDS011;12392;42.678;23.380;2023-06-04T09:14:17;12.35;;;5.18;;
24273;SDS011;12392;42.678;23.380;2023-06-04T09:16:52;7.63;;;4.85;;
24273;SDS011;12392;42.678;23.380;2023-06-04T09:19:20;8.27;;;5.30;;
24273;SDS011;12392;42.678;23.380;2023-06-04T09:21:49;8.55;;;4.93;;
24273;SDS011;12392;42.678;23.380;2023-06-04T09:24:22;9.38;;;5.15;;
24273;SDS011;12392;42.678;23.380;2023-06-04T09:26:49;5.53;;;4.10;;
24273;SDS011;12392;42.678;23.380;2023-06-04T09:29:15;8.55;;;4.32;;
24273;SDS011;12392;42.678;23.380;2023-06-04T09:31:44;8.68;;;4.50;;
24273;SDS011;12392;42.678;23.380;2023-06-04T09:34:11;9.73;;;4.20;;
24273;SDS011;12392;42.678;23.380;2023-06-04T09:36:37;9.68;;;4.57;;
24273;SDS011;12392;42.678;23.380;2023-06-04T09:39:04;7.47;;;5.00;;
24273;SDS011;12392;42.678;23.380;2023-06-04T09:41:42;6.55;;;4.40;;
24273;SDS011;12392;42.678;23.380;2023-06-04T09:44:08;6.20;;;4.45;;
24273;SDS011;12392;42.678;23.380;2023-06-04T09:46:36;8.55;;;4.90;;
24273;SDS011;12392;42.678;23.380;2023-06-04T09:49:02;8.27;;;4.53;;
24273;SDS011;12392;42.678;23.380;2023-06-04T09:51:30;13.35;;;4.85;;
24273;SDS011;12392;42.678;23.380;2023-06-04T09:53:56;10.00;;;4.80;;
24273;SDS011;12392;42.678;23.380;2023-06-04T09:56:23;10.40;;;4.53;;
24273;SDS011;12392;42.678;23.380;2023-06-04T09:58:49;7.22;;;4.43;;
24273;SDS011;12392;42.678;23.380;2023-06-04T10:01:15;6.50;;;4.53;;
24273;SDS011;12392;42.678;23.380;2023-06-04T10:03:42;5.50;;;4.28;;
24273;SDS011;12392;42.678;23.380;2023-06-04T10:06:11;6.15;;;4.38;;
24273;SDS011;12392;42.678;23.380;2023-06-04T10:08:41;9.40;;;4.68;;
24273;SDS011;12392;42.678;23.380;2023-06-04T10:11:10;6.72;;;4.70;;
24273;SDS011;12392;42.678;23.380;2023-06-04T10:16:33;11.98;;;4.57;;
24273;SDS011;12392;42.678;23.380;2023-06-04T10:19:03;4.70;;;3.95;;
24273;SDS011;12392;42.678;23.380;2023-06-04T10:21:30;12.13;;;4.75;;
24273;SDS011;12392;42.678;23.380;2023-06-04T10:23:59;6.80;;;4.45;;
24273;SDS011;12392;42.678;23.380;2023-06-04T10:26:25;8.68;;;5.07;;
24273;SDS011;12392;42.678;23.380;2023-06-04T10:28:51;7.22;;;4.90;;
24273;SDS011;12392;42.678;23.380;2023-06-04T10:31:18;6.38;;;4.43;;
24273;SDS011;12392;42.678;23.380;2023-06-04T10:33:43;10.65;;;5.15;;
24273;SDS011;12392;42.678;23.380;2023-06-04T10:36:19;5.75;;;4.95;;
24273;SDS011;12392;42.678;23.380;2023-06-04T10:38:52;5.20;;;4.50;;
24273;SDS011;12392;42.678;23.380;2023-06-04T10:41:19;6.93;;;4.63;;
24273;SDS011;12392;42.678;23.380;2023-06-04T10:43:49;6.40;;;4.50;;
24273;SDS011;12392;42.678;23.380;2023-06-04T10:46:17;8.70;;;5.45;;
24273;SDS011;12392;42.678;23.380;2023-06-04T10:48:47;4.95;;;4.38;;
24273;SDS011;12392;42.678;23.380;2023-06-04T10:51:15;6.25;;;4.55;;
24273;SDS011;12392;42.678;23.380;2023-06-04T10:53:42;9.63;;;4.90;;
24273;SDS011;12392;42.678;23.380;2023-06-04T10:56:08;7.85;;;4.80;;
24273;SDS011;12392;42.678;23.380;2023-06-04T10:58:34;10.07;;;5.70;;
24273;SDS011;12392;42.678;23.380;2023-06-04T11:01:00;7.32;;;5.25;;
24273;SDS011;12392;42.678;23.380;2023-06-04T11:03:38;8.27;;;5.00;;
24273;SDS011;12392;42.678;23.380;2023-06-04T11:06:14;7.28;;;5.47;;
24273;SDS011;12392;42.678;23.380;2023-06-04T11:08:41;6.57;;;4.97;;
24273;SDS011;12392;42.678;23.380;2023-06-04T11:11:10;6.28;;;4.85;;
24273;SDS011;12392;42.678;23.380;2023-06-04T11:13:37;8.32;;;4.65;;
24273;SDS011;12392;42.678;23.380;2023-06-04T11:16:03;8.32;;;5.22;;
24273;SDS011;12392;42.678;23.380;2023-06-04T11:18:55;8.18;;;4.78;;
24273;SDS011;12392;42.678;23.380;2023-06-04T11:21:21;6.50;;;4.95;;
24273;SDS011;12392;42.678;23.380;2023-06-04T11:23:47;7.60;;;5.18;;
24273;SDS011;12392;42.678;23.380;2023-06-04T11:26:13;6.57;;;5.68;;
24273;SDS011;12392;42.678;23.380;2023-06-04T11:28:39;10.02;;;5.43;;
24273;SDS011;12392;42.678;23.380;2023-06-04T11:31:06;7.90;;;5.47;;
24273;SDS011;12392;42.678;23.380;2023-06-04T11:33:42;8.32;;;5.25;;
24273;SDS011;12392;42.678;23.380;2023-06-04T11:36:32;7.13;;;5.47;;
24273;SDS011;12392;42.678;23.380;2023-06-04T11:39:00;7.90;;;5.20;;
24273;SDS011;12392;42.678;23.380;2023-06-04T11:41:27;10.50;;;6.32;;
24273;SDS011;12392;42.678;23.380;2023-06-04T11:44:01;7.00;;;5.57;;
24273;SDS011;12392;42.678;23.380;2023-06-04T11:46:28;6.32;;;5.05;;
24273;SDS011;12392;42.678;23.380;2023-06-04T11:48:54;8.45;;;5.75;;
24273;SDS011;12392;42.678;23.380;2023-06-04T11:51:20;7.32;;;5.88;;
24273;SDS011;12392;42.678;23.380;2023-06-04T11:53:46;6.22;;;5.25;;
24273;SDS011;12392;42.678;23.380;2023-06-04T11:56:12;8.02;;;5.25;;
24273;SDS011;12392;42.678;23.380;2023-06-04T11:58:38;5.30;;;4.80;;
24273;SDS011;12392;42.678;23.380;2023-06-04T12:01:06;8.50;;;5.93;;
24273;SDS011;12392;42.678;23.380;2023-06-04T12:06:15;7.20;;;5.47;;
24273;SDS011;12392;42.678;23.380;2023-06-04T12:08:52;11.43;;;5.90;;
24273;SDS011;12392;42.678;23.380;2023-06-04T12:11:28;7.78;;;4.90;;
24273;SDS011;12392;42.678;23.380;2023-06-04T12:13:56;10.43;;;5.40;;
24273;SDS011;12392;42.678;23.380;2023-06-04T12:16:23;5.90;;;5.22;;
24273;SDS011;12392;42.678;23.380;2023-06-04T12:18:49;6.03;;;5.18;;
24273;SDS011;12392;42.678;23.380;2023-06-04T12:21:22;11.13;;;5.93;;
24273;SDS011;12392;42.678;23.380;2023-06-04T12:24:05;7.57;;;5.55;;
24273;SDS011;12392;42.678;23.380;2023-06-04T12:26:35;5.88;;;5.28;;
24273;SDS011;12392;42.678;23.380;2023-06-04T12:29:15;6.43;;;5.50;;
24273;SDS011;12392;42.678;23.380;2023-06-04T12:31:42;8.10;;;5.57;;
24273;SDS011;12392;42.678;23.380;2023-06-04T12:34:09;7.50;;;4.90;;
24273;SDS011;12392;42.678;23.380;2023-06-04T12:36:36;6.35;;;5.15;;
24273;SDS011;12392;42.678;23.380;2023-06-04T12:39:03;7.18;;;5.47;;
24273;SDS011;12392;42.678;23.380;2023-06-04T12:41:30;7.05;;;5.32;;
24273;SDS011;12392;42.678;23.380;2023-06-04T12:43:56;6.35;;;5.30;;
24273;SDS011;12392;42.678;23.380;2023-06-04T12:46:23;10.43;;;5.38;;
24273;SDS011;12392;42.678;23.380;2023-06-04T12:48:52;6.93;;;4.90;;
24273;SDS011;12392;42.678;23.380;2023-06-04T12:51:19;8.93;;;4.70;;
24273;SDS011;12392;42.678;23.380;2023-06-04T12:53:45;7.40;;;5.22;;
24273;SDS011;12392;42.678;23.380;2023-06-04T12:56:11;8.40;;;5.18;;
24273;SDS011;12392;42.678;23.380;2023-06-04T12:58:37;7.22;;;5.13;;
24273;SDS011;12392;42.678;23.380;2023-06-04T13:01:03;6.95;;;4.70;;
24273;SDS011;12392;42.678;23.380;2023-06-04T13:03:32;6.80;;;5.05;;
24273;SDS011;12392;42.678;23.380;2023-06-04T13:05:59;8.52;;;5.13;;
24273;SDS011;12392;42.678;23.380;2023-06-04T13:08:24;5.20;;;4.70;;
24273;SDS011;12392;42.678;23.380;2023-06-04T13:10:50;7.53;;;5.20;;
24273;SDS011;12392;42.678;23.380;2023-06-04T13:13:17;9.60;;;5.07;;
24273;SDS011;12392;42.678;23.380;2023-06-04T13:15:43;7.72;;;4.82;;
24273;SDS011;12392;42.678;23.380;2023-06-04T13:18:10;10.07;;;5.30;;
24273;SDS011;12392;42.678;23.380;2023-06-04T13:20:36;9.02;;;4.80;;
24273;SDS011;12392;42.678;23.380;2023-06-04T13:23:02;8.77;;;5.43;;
24273;SDS011;12392;42.678;23.380;2023-06-04T13:25:28;4.60;;;4.18;;
24273;SDS011;12392;42.678;23.380;2023-06-04T13:27:54;5.07;;;4.20;;
24273;SDS011;12392;42.678;23.380;2023-06-04T13:30:20;6.07;;;4.07;;
24273;SDS011;12392;42.678;23.380;2023-06-04T13:32:46;12.52;;;4.68;;
24273;SDS011;12392;42.678;23.380;2023-06-04T13:35:12;9.13;;;4.50;;
24273;SDS011;12392;42.678;23.380;2023-06-04T13:37:38;5.07;;;4.57;;
24273;SDS011;12392;42.678;23.380;2023-06-04T13:40:03;5.95;;;4.63;;
24273;SDS011;12392;42.678;23.380;2023-06-04T13:42:30;7.22;;;4.43;;
24273;SDS011;12392;42.678;23.380;2023-06-04T13:44:55;8.45;;;4.90;;
24273;SDS011;12392;42.678;23.380;2023-06-04T13:47:21;5.45;;;4.40;;
24273;SDS011;12392;42.678;23.380;2023-06-04T13:49:47;9.68;;;4.60;;
24273;SDS011;12392;42.678;23.380;2023-06-04T13:52:12;10.32;;;4.38;;
24273;SDS011;12392;42.678;23.380;2023-06-04T13:54:38;5.22;;;3.97;;
24273;SDS011;12392;42.678;23.380;2023-06-04T13:57:04;4.63;;;4.13;;
24273;SDS011;12392;42.678;23.380;2023-06-04T13:59:31;5.60;;;4.55;;
24273;SDS011;12392;42.678;23.380;2023-06-04T14:02:00;5.80;;;4.13;;
24273;SDS011;12392;42.678;23.380;2023-06-04T14:04:25;6.78;;;4.38;;
24273;SDS011;12392;42.678;23.380;2023-06-04T14:06:51;5.80;;;4.35;;
24273;SDS011;12392;42.678;23.380;2023-06-04T14:09:17;5.00;;;4.45;;
24273;SDS011;12392;42.678;23.380;2023-06-04T14:11:42;5.50;;;3.88;;
24273;SDS011;12392;42.678;23.380;2023-06-04T14:14:08;6.10;;;4.05;;
24273;SDS011;12392;42.678;23.380;2023-06-04T14:16:35;6.03;;;4.55;;
24273;SDS011;12392;42.678;23.380;2023-06-04T14:19:01;5.57;;;4.45;;
24273;SDS011;12392;42.678;23.380;2023-06-04T14:21:27;5.70;;;4.30;;
24273;SDS011;12392;42.678;23.380;2023-06-04T14:23:53;9.13;;;4.45;;
24273;SDS011;12392;42.678;23.380;2023-06-04T14:26:18;9.05;;;4.43;;
24273;SDS011;12392;42.678;23.380;2023-06-04T14:28:45;6.80;;;3.88;;
24273;SDS011;12392;42.678;23.380;2023-06-04T14:31:11;7.57;;;4.53;;
24273;SDS011;12392;42.678;23.380;2023-06-04T14:33:36;5.32;;;4.45;;
24273;SDS011;12392;42.678;23.380;2023-06-04T14:36:02;5.85;;;4.25;;
24273;SDS011;12392;42.678;23.380;2023-06-04T14:38:28;7.13;;;4.18;;
24273;SDS011;12392;42.678;23.380;2023-06-04T14:40:54;9.75;;;5.03;;
24273;SDS011;12392;42.678;23.380;2023-06-04T14:43:21;8.98;;;3.95;;
24273;SDS011;12392;42.678;23.380;2023-06-04T14:45:47;6.07;;;4.20;;
24273;SDS011;12392;42.678;23.380;2023-06-04T14:48:13;5.13;;;4.40;;